sensor_id;sensor_type;location;lat;lon;timestamp;P1;durP1;ratioP1;P2;durP2;ratioP2
20229;SDS011;12195;55.790;37.572;2022-12-08T00:00:50;6.05;;;3.27;;
20229;SDS011;12195;55.790;37.572;2022-12-08T00:03:22;8.48;;;3.72;;
20229;SDS011;12195;55.790;37.572;2022-12-08T00:05:55;4.87;;;2.55;;
20229;SDS011;12195;55.790;37.572;2022-12-08T00:08:45;9.78;;;4.22;;
20229;SDS011;12195;55.790;37.572;2022-12-08T00:11:35;9.10;;;4.85;;
20229;SDS011;12195;55.790;37.572;2022-12-08T00:14:08;7.53;;;3.65;;
20229;SDS011;12195;55.790;37.572;2022-12-08T00:16:40;16.93;;;4.15;;
20229;SDS011;12195;55.790;37.572;2022-12-08T00:19:13;8.05;;;3.10;;
20229;SDS011;12195;55.790;37.572;2022-12-08T00:21:45;6.03;;;3.77;;
20229;SDS011;12195;55.790;37.572;2022-12-08T00:24:18;9.15;;;3.35;;
20229;SDS011;12195;55.790;37.572;2022-12-08T00:26:50;9.35;;;3.35;;
20229;SDS011;12195;55.790;37.572;2022-12-08T00:29:22;8.00;;;3.95;;
20229;SDS011;12195;55.790;37.572;2022-12-08T00:31:55;4.42;;;2.90;;
20229;SDS011;12195;55.790;37.572;2022-12-08T00:34:27;11.60;;;4.10;;
20229;SDS011;12195;55.790;37.572;2022-12-08T00:37:00;5.47;;;2.37;;
20229;SDS011;12195;55.790;37.572;2022-12-08T00:39:32;8.58;;;3.75;;
20229;SDS011;12195;55.790;37.572;2022-12-08T00:42:04;8.53;;;3.50;;
20229;SDS011;12195;55.790;37.572;2022-12-08T00:44:43;4.35;;;2.90;;
20229;SDS011;12195;55.790;37.572;2022-12-08T00:47:16;7.83;;;3.60;;
20229;SDS011;12195;55.790;37.572;2022-12-08T00:49:50;12.37;;;3.75;;
20229;SDS011;12195;55.790;37.572;2022-12-08T00:52:22;5.05;;;3.40;;
20229;SDS011;12195;55.790;37.572;2022-12-08T00:54:54;13.38;;;4.03;;
20229;SDS011;12195;55.790;37.572;2022-12-08T00:57:26;8.43;;;4.00;;
20229;SDS011;12195;55.790;37.572;2022-12-08T00:59:58;6.90;;;3.42;;
20229;SDS011;12195;55.790;37.572;2022-12-08T01:02:31;8.45;;;3.40;;
20229;SDS011;12195;55.790;37.572;2022-12-08T01:05:05;5.00;;;3.00;;
20229;SDS011;12195;55.790;37.572;2022-12-08T01:07:37;10.70;;;2.40;;
20229;SDS011;12195;55.790;37.572;2022-12-08T01:10:09;7.67;;;3.77;;
20229;SDS011;12195;55.790;37.572;2022-12-08T01:12:42;7.72;;;4.17;;
20229;SDS011;12195;55.790;37.572;2022-12-08T01:15:14;9.70;;;4.17;;
20229;SDS011;12195;55.790;37.572;2022-12-08T01:17:46;2.52;;;2.10;;
20229;SDS011;12195;55.790;37.572;2022-12-08T01:20:18;8.68;;;3.85;;
20229;SDS011;12195;55.790;37.572;2022-12-08T01:22:50;6.03;;;3.25;;
20229;SDS011;12195;55.790;37.572;2022-12-08T01:25:22;9.85;;;3.87;;
20229;SDS011;12195;55.790;37.572;2022-12-08T01:27:54;9.65;;;3.72;;
20229;SDS011;12195;55.790;37.572;2022-12-08T01:30:26;12.25;;;4.42;;
20229;SDS011;12195;55.790;37.572;2022-12-08T01:32:59;5.47;;;3.05;;
20229;SDS011;12195;55.790;37.572;2022-12-08T01:35:32;8.33;;;4.00;;
20229;SDS011;12195;55.790;37.572;2022-12-08T01:38:04;6.70;;;3.60;;
20229;SDS011;12195;55.790;37.572;2022-12-08T01:40:37;7.55;;;4.42;;
20229;SDS011;12195;55.790;37.572;2022-12-08T01:43:15;6.28;;;3.70;;
20229;SDS011;12195;55.790;37.572;2022-12-08T01:45:49;5.33;;;3.52;;
20229;SDS011;12195;55.790;37.572;2022-12-08T01:48:22;9.65;;;4.05;;
20229;SDS011;12195;55.790;37.572;2022-12-08T01:50:56;7.58;;;3.42;;
20229;SDS011;12195;55.790;37.572;2022-12-08T01:53:29;7.78;;;3.85;;
20229;SDS011;12195;55.790;37.572;2022-12-08T01:56:06;8.70;;;3.35;;
20229;SDS011;12195;55.790;37.572;2022-12-08T01:58:42;8.75;;;4.42;;
20229;SDS011;12195;55.790;37.572;2022-12-08T02:01:16;9.58;;;4.65;;
20229;SDS011;12195;55.790;37.572;2022-12-08T02:03:56;9.90;;;4.72;;
20229;SDS011;12195;55.790;37.572;2022-12-08T02:06:32;8.80;;;4.30;;
20229;SDS011;12195;55.790;37.572;2022-12-08T02:09:06;8.53;;;4.53;;
20229;SDS011;12195;55.790;37.572;2022-12-08T02:11:39;6.67;;;3.52;;
20229;SDS011;12195;55.790;37.572;2022-12-08T02:14:11;6.50;;;3.58;;
20229;SDS011;12195;55.790;37.572;2022-12-08T02:16:48;8.18;;;4.12;;
20229;SDS011;12195;55.790;37.572;2022-12-08T02:30:52;9.48;;;4.30;;
20229;SDS011;12195;55.790;37.572;2022-12-08T02:42:10;10.60;;;4.42;;
20229;SDS011;12195;55.790;37.572;2022-12-08T02:44:49;9.95;;;3.80;;
20229;SDS011;12195;55.790;37.572;2022-12-08T02:47:18;7.17;;;3.72;;
20229;SDS011;12195;55.790;37.572;2022-12-08T02:49:53;6.97;;;3.17;;
20229;SDS011;12195;55.790;37.572;2022-12-08T02:55:02;8.93;;;4.20;;
20229;SDS011;12195;55.790;37.572;2022-12-08T03:00:23;9.65;;;4.28;;
20229;SDS011;12195;55.790;37.572;2022-12-08T03:08:48;7.22;;;4.40;;
20229;SDS011;12195;55.790;37.572;2022-12-08T03:11:27;6.25;;;4.08;;
20229;SDS011;12195;55.790;37.572;2022-12-08T03:14:16;10.23;;;4.70;;
20229;SDS011;12195;55.790;37.572;2022-12-08T03:16:50;6.42;;;3.55;;
20229;SDS011;12195;55.790;37.572;2022-12-08T03:19:25;10.55;;;5.25;;
20229;SDS011;12195;55.790;37.572;2022-12-08T03:22:02;9.73;;;4.58;;
20229;SDS011;12195;55.790;37.572;2022-12-08T03:24:37;10.48;;;4.35;;
20229;SDS011;12195;55.790;37.572;2022-12-08T03:27:17;10.25;;;4.60;;
20229;SDS011;12195;55.790;37.572;2022-12-08T03:29:52;10.10;;;4.60;;
20229;SDS011;12195;55.790;37.572;2022-12-08T03:34:59;4.65;;;2.65;;
20229;SDS011;12195;55.790;37.572;2022-12-08T03:37:38;7.30;;;4.50;;
20229;SDS011;12195;55.790;37.572;2022-12-08T03:40:09;4.92;;;3.22;;
20229;SDS011;12195;55.790;37.572;2022-12-08T03:42:44;8.68;;;4.45;;
20229;SDS011;12195;55.790;37.572;2022-12-08T03:45:16;9.03;;;4.37;;
20229;SDS011;12195;55.790;37.572;2022-12-08T03:47:48;9.05;;;4.70;;
20229;SDS011;12195;55.790;37.572;2022-12-08T03:50:20;7.28;;;4.47;;
20229;SDS011;12195;55.790;37.572;2022-12-08T03:52:53;9.50;;;4.80;;
20229;SDS011;12195;55.790;37.572;2022-12-08T03:55:25;7.92;;;3.17;;
20229;SDS011;12195;55.790;37.572;2022-12-08T03:57:57;9.43;;;4.40;;
20229;SDS011;12195;55.790;37.572;2022-12-08T04:00:31;9.95;;;4.95;;
20229;SDS011;12195;55.790;37.572;2022-12-08T04:03:03;5.53;;;3.47;;
20229;SDS011;12195;55.790;37.572;2022-12-08T04:05:36;10.43;;;4.37;;
20229;SDS011;12195;55.790;37.572;2022-12-08T04:08:08;9.80;;;4.80;;
20229;SDS011;12195;55.790;37.572;2022-12-08T04:10:41;10.10;;;4.83;;
20229;SDS011;12195;55.790;37.572;2022-12-08T04:13:13;7.58;;;4.42;;
20229;SDS011;12195;55.790;37.572;2022-12-08T04:15:46;6.83;;;3.77;;
20229;SDS011;12195;55.790;37.572;2022-12-08T04:18:18;8.00;;;4.40;;
20229;SDS011;12195;55.790;37.572;2022-12-08T04:20:52;6.55;;;3.60;;
20229;SDS011;12195;55.790;37.572;2022-12-08T04:23:24;8.75;;;4.00;;
20229;SDS011;12195;55.790;37.572;2022-12-08T04:25:56;7.28;;;3.50;;
20229;SDS011;12195;55.790;37.572;2022-12-08T04:28:28;12.18;;;4.40;;
20229;SDS011;12195;55.790;37.572;2022-12-08T04:31:01;10.18;;;4.70;;
20229;SDS011;12195;55.790;37.572;2022-12-08T04:33:34;11.70;;;4.95;;
20229;SDS011;12195;55.790;37.572;2022-12-08T04:36:07;11.43;;;4.42;;
20229;SDS011;12195;55.790;37.572;2022-12-08T04:38:40;13.08;;;4.80;;
20229;SDS011;12195;55.790;37.572;2022-12-08T04:41:13;8.13;;;4.65;;
20229;SDS011;12195;55.790;37.572;2022-12-08T04:43:45;6.45;;;4.35;;
20229;SDS011;12195;55.790;37.572;2022-12-08T04:46:18;7.70;;;4.53;;
20229;SDS011;12195;55.790;37.572;2022-12-08T04:48:51;8.83;;;3.90;;
20229;SDS011;12195;55.790;37.572;2022-12-08T04:51:24;6.95;;;3.92;;
20229;SDS011;12195;55.790;37.572;2022-12-08T04:53:56;11.05;;;5.25;;
20229;SDS011;12195;55.790;37.572;2022-12-08T04:56:29;11.12;;;4.92;;
20229;SDS011;12195;55.790;37.572;2022-12-08T04:59:04;15.60;;;5.45;;
20229;SDS011;12195;55.790;37.572;2022-12-08T05:01:37;13.58;;;5.42;;
20229;SDS011;12195;55.790;37.572;2022-12-08T05:04:10;10.60;;;4.67;;
20229;SDS011;12195;55.790;37.572;2022-12-08T05:06:44;8.38;;;3.80;;
20229;SDS011;12195;55.790;37.572;2022-12-08T05:09:16;14.13;;;4.92;;
20229;SDS011;12195;55.790;37.572;2022-12-08T05:11:50;21.73;;;5.08;;
20229;SDS011;12195;55.790;37.572;2022-12-08T05:14:23;10.53;;;5.30;;
20229;SDS011;12195;55.790;37.572;2022-12-08T05:16:56;9.28;;;4.78;;
20229;SDS011;12195;55.790;37.572;2022-12-08T05:19:31;9.78;;;5.33;;
20229;SDS011;12195;55.790;37.572;2022-12-08T05:22:04;10.30;;;3.62;;
20229;SDS011;12195;55.790;37.572;2022-12-08T05:24:38;14.55;;;4.92;;
20229;SDS011;12195;55.790;37.572;2022-12-08T05:27:13;12.95;;;5.30;;
20229;SDS011;12195;55.790;37.572;2022-12-08T05:29:45;12.33;;;5.22;;
20229;SDS011;12195;55.790;37.572;2022-12-08T05:32:19;9.88;;;4.95;;
20229;SDS011;12195;55.790;37.572;2022-12-08T05:34:53;10.38;;;5.25;;
20229;SDS011;12195;55.790;37.572;2022-12-08T05:37:27;7.15;;;3.98;;
20229;SDS011;12195;55.790;37.572;2022-12-08T05:40:00;14.38;;;5.28;;
20229;SDS011;12195;55.790;37.572;2022-12-08T05:42:36;12.35;;;4.28;;
20229;SDS011;12195;55.790;37.572;2022-12-08T05:45:10;13.70;;;5.00;;
20229;SDS011;12195;55.790;37.572;2022-12-08T05:47:42;8.60;;;3.08;;
20229;SDS011;12195;55.790;37.572;2022-12-08T05:50:16;7.58;;;3.92;;
20229;SDS011;12195;55.790;37.572;2022-12-08T05:52:49;13.75;;;4.87;;
20229;SDS011;12195;55.790;37.572;2022-12-08T05:55:21;6.78;;;4.00;;
20229;SDS011;12195;55.790;37.572;2022-12-08T05:57:54;12.68;;;5.33;;
20229;SDS011;12195;55.790;37.572;2022-12-08T06:00:26;9.90;;;4.75;;
20229;SDS011;12195;55.790;37.572;2022-12-08T06:03:00;16.65;;;5.50;;
20229;SDS011;12195;55.790;37.572;2022-12-08T06:05:33;8.83;;;3.80;;
20229;SDS011;12195;55.790;37.572;2022-12-08T06:08:08;12.00;;;4.22;;
20229;SDS011;12195;55.790;37.572;2022-12-08T06:10:42;17.02;;;5.97;;
20229;SDS011;12195;55.790;37.572;2022-12-08T06:13:16;7.87;;;3.47;;
20229;SDS011;12195;55.790;37.572;2022-12-08T06:15:49;5.42;;;3.02;;
20229;SDS011;12195;55.790;37.572;2022-12-08T06:18:22;10.93;;;4.87;;
20229;SDS011;12195;55.790;37.572;2022-12-08T06:21:02;11.93;;;4.72;;
20229;SDS011;12195;55.790;37.572;2022-12-08T06:23:36;12.88;;;5.40;;
20229;SDS011;12195;55.790;37.572;2022-12-08T06:26:11;6.15;;;3.05;;
20229;SDS011;12195;55.790;37.572;2022-12-08T06:28:44;18.82;;;4.25;;
20229;SDS011;12195;55.790;37.572;2022-12-08T06:31:18;16.62;;;4.67;;
20229;SDS011;12195;55.790;37.572;2022-12-08T06:33:53;16.05;;;5.58;;
20229;SDS011;12195;55.790;37.572;2022-12-08T06:38:58;18.92;;;4.92;;
20229;SDS011;12195;55.790;37.572;2022-12-08T06:41:33;20.15;;;5.33;;
20229;SDS011;12195;55.790;37.572;2022-12-08T06:44:08;13.48;;;5.83;;
20229;SDS011;12195;55.790;37.572;2022-12-08T06:46:41;9.75;;;4.60;;
20229;SDS011;12195;55.790;37.572;2022-12-08T06:49:15;20.15;;;5.65;;
20229;SDS011;12195;55.790;37.572;2022-12-08T06:51:47;8.25;;;4.72;;
20229;SDS011;12195;55.790;37.572;2022-12-08T06:54:21;20.20;;;5.78;;
20229;SDS011;12195;55.790;37.572;2022-12-08T06:56:54;15.40;;;5.60;;
20229;SDS011;12195;55.790;37.572;2022-12-08T06:59:27;14.57;;;5.20;;
20229;SDS011;12195;55.790;37.572;2022-12-08T07:02:00;12.75;;;5.92;;
20229;SDS011;12195;55.790;37.572;2022-12-08T07:04:33;14.15;;;4.60;;
20229;SDS011;12195;55.790;37.572;2022-12-08T07:07:05;16.67;;;4.42;;
20229;SDS011;12195;55.790;37.572;2022-12-08T07:09:38;17.35;;;6.30;;
20229;SDS011;12195;55.790;37.572;2022-12-08T07:12:10;14.40;;;5.72;;
20229;SDS011;12195;55.790;37.572;2022-12-08T07:14:43;12.90;;;4.63;;
20229;SDS011;12195;55.790;37.572;2022-12-08T07:17:16;7.20;;;3.67;;
20229;SDS011;12195;55.790;37.572;2022-12-08T07:19:48;9.20;;;4.28;;
20229;SDS011;12195;55.790;37.572;2022-12-08T07:22:20;16.10;;;5.72;;
20229;SDS011;12195;55.790;37.572;2022-12-08T07:24:53;11.27;;;4.90;;
20229;SDS011;12195;55.790;37.572;2022-12-08T07:27:27;12.40;;;4.22;;
20229;SDS011;12195;55.790;37.572;2022-12-08T07:29:59;17.87;;;6.03;;
20229;SDS011;12195;55.790;37.572;2022-12-08T07:32:32;11.95;;;5.35;;
20229;SDS011;12195;55.790;37.572;2022-12-08T07:35:05;13.75;;;5.08;;
20229;SDS011;12195;55.790;37.572;2022-12-08T07:37:39;9.93;;;4.85;;
20229;SDS011;12195;55.790;37.572;2022-12-08T07:40:12;10.03;;;4.20;;
20229;SDS011;12195;55.790;37.572;2022-12-08T07:42:45;8.70;;;4.22;;
20229;SDS011;12195;55.790;37.572;2022-12-08T07:45:18;7.08;;;4.17;;
20229;SDS011;12195;55.790;37.572;2022-12-08T07:47:52;7.45;;;4.17;;
20229;SDS011;12195;55.790;37.572;2022-12-08T07:50:26;9.15;;;4.30;;
20229;SDS011;12195;55.790;37.572;2022-12-08T07:52:59;11.73;;;4.67;;
20229;SDS011;12195;55.790;37.572;2022-12-08T07:55:31;10.80;;;5.08;;
20229;SDS011;12195;55.790;37.572;2022-12-08T07:58:05;7.55;;;4.67;;
20229;SDS011;12195;55.790;37.572;2022-12-08T08:00:38;9.85;;;4.42;;
20229;SDS011;12195;55.790;37.572;2022-12-08T08:03:11;14.85;;;4.78;;
20229;SDS011;12195;55.790;37.572;2022-12-08T08:05:44;14.50;;;5.35;;
20229;SDS011;12195;55.790;37.572;2022-12-08T08:08:18;9.50;;;4.47;;
20229;SDS011;12195;55.790;37.572;2022-12-08T08:10:50;7.03;;;3.30;;
20229;SDS011;12195;55.790;37.572;2022-12-08T08:13:23;35.28;;;7.42;;
20229;SDS011;12195;55.790;37.572;2022-12-08T08:16:04;8.58;;;4.78;;
20229;SDS011;12195;55.790;37.572;2022-12-08T08:18:38;6.40;;;4.50;;
20229;SDS011;12195;55.790;37.572;2022-12-08T08:21:11;13.28;;;5.60;;
20229;SDS011;12195;55.790;37.572;2022-12-08T08:23:46;12.03;;;4.58;;
20229;SDS011;12195;55.790;37.572;2022-12-08T08:26:19;16.77;;;5.42;;
20229;SDS011;12195;55.790;37.572;2022-12-08T08:28:51;91.42;;;11.90;;
20229;SDS011;12195;55.790;37.572;2022-12-08T08:31:24;17.82;;;5.30;;
20229;SDS011;12195;55.790;37.572;2022-12-08T08:33:59;12.58;;;5.53;;
20229;SDS011;12195;55.790;37.572;2022-12-08T08:36:34;10.08;;;4.85;;
20229;SDS011;12195;55.790;37.572;2022-12-08T08:39:06;15.25;;;6.03;;
20229;SDS011;12195;55.790;37.572;2022-12-08T08:41:39;18.95;;;5.75;;
20229;SDS011;12195;55.790;37.572;2022-12-08T08:44:13;8.63;;;4.95;;
20229;SDS011;12195;55.790;37.572;2022-12-08T08:46:45;15.27;;;5.53;;
20229;SDS011;12195;55.790;37.572;2022-12-08T08:49:19;12.35;;;4.87;;
20229;SDS011;12195;55.790;37.572;2022-12-08T08:51:51;16.57;;;5.35;;
20229;SDS011;12195;55.790;37.572;2022-12-08T08:54:24;8.93;;;4.78;;
20229;SDS011;12195;55.790;37.572;2022-12-08T08:56:58;28.05;;;6.35;;
20229;SDS011;12195;55.790;37.572;2022-12-08T08:59:32;144.75;;;17.35;;
20229;SDS011;12195;55.790;37.572;2022-12-08T09:02:04;11.93;;;5.15;;
20229;SDS011;12195;55.790;37.572;2022-12-08T09:04:38;12.65;;;5.28;;
20229;SDS011;12195;55.790;37.572;2022-12-08T09:07:10;22.50;;;6.58;;
20229;SDS011;12195;55.790;37.572;2022-12-08T09:09:43;12.68;;;5.78;;
20229;SDS011;12195;55.790;37.572;2022-12-08T09:12:16;12.95;;;5.62;;
20229;SDS011;12195;55.790;37.572;2022-12-08T09:14:51;9.38;;;5.05;;
20229;SDS011;12195;55.790;37.572;2022-12-08T09:17:23;14.63;;;5.35;;
20229;SDS011;12195;55.790;37.572;2022-12-08T09:19:56;14.47;;;6.65;;
20229;SDS011;12195;55.790;37.572;2022-12-08T09:22:31;12.05;;;5.45;;
20229;SDS011;12195;55.790;37.572;2022-12-08T09:25:04;7.87;;;3.87;;
20229;SDS011;12195;55.790;37.572;2022-12-08T09:27:37;11.18;;;4.87;;
20229;SDS011;12195;55.790;37.572;2022-12-08T09:30:10;14.28;;;5.75;;
20229;SDS011;12195;55.790;37.572;2022-12-08T09:32:43;9.77;;;5.17;;
20229;SDS011;12195;55.790;37.572;2022-12-08T09:35:15;18.45;;;6.25;;
20229;SDS011;12195;55.790;37.572;2022-12-08T09:37:49;14.63;;;5.70;;
20229;SDS011;12195;55.790;37.572;2022-12-08T09:40:21;8.73;;;4.58;;
20229;SDS011;12195;55.790;37.572;2022-12-08T09:45:55;10.38;;;4.90;;
20229;SDS011;12195;55.790;37.572;2022-12-08T09:48:34;11.55;;;4.62;;
20229;SDS011;12195;55.790;37.572;2022-12-08T09:51:04;11.53;;;5.62;;
20229;SDS011;12195;55.790;37.572;2022-12-08T09:53:43;14.95;;;6.33;;
20229;SDS011;12195;55.790;37.572;2022-12-08T09:56:26;9.63;;;5.60;;
20229;SDS011;12195;55.790;37.572;2022-12-08T09:59:10;17.75;;;6.33;;
20229;SDS011;12195;55.790;37.572;2022-12-08T10:01:40;9.30;;;5.08;;
20229;SDS011;12195;55.790;37.572;2022-12-08T10:04:19;9.15;;;5.37;;
20229;SDS011;12195;55.790;37.572;2022-12-08T10:07:05;11.30;;;5.78;;
20229;SDS011;12195;55.790;37.572;2022-12-08T10:09:44;10.00;;;4.67;;
20229;SDS011;12195;55.790;37.572;2022-12-08T10:12:42;12.50;;;5.35;;
20229;SDS011;12195;55.790;37.572;2022-12-08T10:15:36;12.23;;;5.45;;
20229;SDS011;12195;55.790;37.572;2022-12-08T10:18:22;16.62;;;5.00;;
20229;SDS011;12195;55.790;37.572;2022-12-08T10:21:11;10.48;;;5.03;;
20229;SDS011;12195;55.790;37.572;2022-12-08T10:23:34;12.30;;;5.80;;
20229;SDS011;12195;55.790;37.572;2022-12-08T10:26:13;11.12;;;5.55;;
20229;SDS011;12195;55.790;37.572;2022-12-08T10:28:47;9.73;;;5.25;;
20229;SDS011;12195;55.790;37.572;2022-12-08T10:31:21;12.23;;;6.33;;
20229;SDS011;12195;55.790;37.572;2022-12-08T10:33:59;11.55;;;6.10;;
20229;SDS011;12195;55.790;37.572;2022-12-08T10:42:08;13.45;;;6.28;;
20229;SDS011;12195;55.790;37.572;2022-12-08T10:47:39;11.80;;;6.40;;
20229;SDS011;12195;55.790;37.572;2022-12-08T10:50:22;14.73;;;6.33;;
20229;SDS011;12195;55.790;37.572;2022-12-08T10:55:44;13.30;;;5.70;;
20229;SDS011;12195;55.790;37.572;2022-12-08T10:58:34;12.33;;;5.78;;
20229;SDS011;12195;55.790;37.572;2022-12-08T11:03:49;11.80;;;5.70;;
20229;SDS011;12195;55.790;37.572;2022-12-08T11:06:30;15.60;;;5.92;;
20229;SDS011;12195;55.790;37.572;2022-12-08T11:14:55;10.98;;;5.37;;
20229;SDS011;12195;55.790;37.572;2022-12-08T11:17:35;13.20;;;5.55;;
20229;SDS011;12195;55.790;37.572;2022-12-08T11:22:52;10.18;;;5.30;;
20229;SDS011;12195;55.790;37.572;2022-12-08T11:25:26;10.40;;;5.10;;
20229;SDS011;12195;55.790;37.572;2022-12-08T11:27:59;12.23;;;5.60;;
20229;SDS011;12195;55.790;37.572;2022-12-08T11:30:42;11.30;;;5.08;;
20229;SDS011;12195;55.790;37.572;2022-12-08T11:33:21;21.15;;;6.42;;
20229;SDS011;12195;55.790;37.572;2022-12-08T11:36:02;15.15;;;5.58;;
20229;SDS011;12195;55.790;37.572;2022-12-08T11:38:40;17.90;;;5.87;;
20229;SDS011;12195;55.790;37.572;2022-12-08T11:41:17;11.45;;;5.67;;
20229;SDS011;12195;55.790;37.572;2022-12-08T11:43:55;8.68;;;4.12;;
20229;SDS011;12195;55.790;37.572;2022-12-08T11:46:37;13.65;;;5.75;;
20229;SDS011;12195;55.790;37.572;2022-12-08T11:49:25;14.73;;;6.80;;
20229;SDS011;12195;55.790;37.572;2022-12-08T11:51:59;14.38;;;5.00;;
20229;SDS011;12195;55.790;37.572;2022-12-08T11:54:48;10.53;;;5.25;;
20229;SDS011;12195;55.790;37.572;2022-12-08T11:57:17;14.23;;;6.08;;
20229;SDS011;12195;55.790;37.572;2022-12-08T11:59:53;12.07;;;5.83;;
20229;SDS011;12195;55.790;37.572;2022-12-08T12:02:29;18.32;;;6.33;;
20229;SDS011;12195;55.790;37.572;2022-12-08T12:20:26;11.30;;;5.67;;
20229;SDS011;12195;55.790;37.572;2022-12-08T12:25:51;10.32;;;4.60;;
20229;SDS011;12195;55.790;37.572;2022-12-08T12:28:39;14.35;;;5.65;;
20229;SDS011;12195;55.790;37.572;2022-12-08T12:31:14;11.90;;;5.78;;
20229;SDS011;12195;55.790;37.572;2022-12-08T12:33:48;18.27;;;5.35;;
20229;SDS011;12195;55.790;37.572;2022-12-08T12:36:23;17.07;;;6.87;;
20229;SDS011;12195;55.790;37.572;2022-12-08T12:38:56;16.35;;;6.83;;
20229;SDS011;12195;55.790;37.572;2022-12-08T12:41:43;13.53;;;5.87;;
20229;SDS011;12195;55.790;37.572;2022-12-08T12:44:24;12.60;;;6.37;;
20229;SDS011;12195;55.790;37.572;2022-12-08T12:47:03;10.32;;;4.85;;
20229;SDS011;12195;55.790;37.572;2022-12-08T12:57:45;14.20;;;5.30;;
20229;SDS011;12195;55.790;37.572;2022-12-08T13:00:23;10.08;;;5.55;;
20229;SDS011;12195;55.790;37.572;2022-12-08T13:02:57;13.85;;;7.15;;
20229;SDS011;12195;55.790;37.572;2022-12-08T13:05:30;13.10;;;5.45;;
20229;SDS011;12195;55.790;37.572;2022-12-08T13:08:06;15.90;;;6.03;;
20229;SDS011;12195;55.790;37.572;2022-12-08T13:11:06;21.30;;;6.60;;
20229;SDS011;12195;55.790;37.572;2022-12-08T13:13:20;27.93;;;7.53;;
20229;SDS011;12195;55.790;37.572;2022-12-08T13:15:54;17.12;;;6.62;;
20229;SDS011;12195;55.790;37.572;2022-12-08T13:18:36;17.25;;;6.83;;
20229;SDS011;12195;55.790;37.572;2022-12-08T13:21:23;15.65;;;5.67;;
20229;SDS011;12195;55.790;37.572;2022-12-08T13:24:12;16.20;;;6.85;;
20229;SDS011;12195;55.790;37.572;2022-12-08T13:29:38;13.20;;;6.17;;
20229;SDS011;12195;55.790;37.572;2022-12-08T13:34:50;14.58;;;5.70;;
20229;SDS011;12195;55.790;37.572;2022-12-08T13:37:24;17.77;;;6.85;;
20229;SDS011;12195;55.790;37.572;2022-12-08T13:39:59;12.07;;;6.05;;
20229;SDS011;12195;55.790;37.572;2022-12-08T13:42:45;13.55;;;5.47;;
20229;SDS011;12195;55.790;37.572;2022-12-08T13:45:22;13.93;;;6.50;;
20229;SDS011;12195;55.790;37.572;2022-12-08T13:48:03;15.48;;;6.60;;
20229;SDS011;12195;55.790;37.572;2022-12-08T13:51:12;14.55;;;5.80;;
20229;SDS011;12195;55.790;37.572;2022-12-08T13:53:56;13.90;;;6.35;;
20229;SDS011;12195;55.790;37.572;2022-12-08T13:56:39;13.83;;;6.20;;
20229;SDS011;12195;55.790;37.572;2022-12-08T14:02:03;16.90;;;5.85;;
20229;SDS011;12195;55.790;37.572;2022-12-08T14:04:46;10.58;;;3.75;;
20229;SDS011;12195;55.790;37.572;2022-12-08T14:07:21;14.78;;;6.95;;
20229;SDS011;12195;55.790;37.572;2022-12-08T14:09:53;13.43;;;7.10;;
20229;SDS011;12195;55.790;37.572;2022-12-08T14:12:26;16.23;;;7.28;;
20229;SDS011;12195;55.790;37.572;2022-12-08T14:15:02;21.70;;;10.45;;
20229;SDS011;12195;55.790;37.572;2022-12-08T14:17:37;16.10;;;6.42;;
20229;SDS011;12195;55.790;37.572;2022-12-08T14:22:51;15.48;;;6.87;;
20229;SDS011;12195;55.790;37.572;2022-12-08T14:25:28;18.85;;;6.80;;
20229;SDS011;12195;55.790;37.572;2022-12-08T14:28:01;27.27;;;8.28;;
20229;SDS011;12195;55.790;37.572;2022-12-08T14:30:35;16.15;;;7.20;;
20229;SDS011;12195;55.790;37.572;2022-12-08T14:33:14;15.35;;;7.15;;
20229;SDS011;12195;55.790;37.572;2022-12-08T14:35:48;11.97;;;5.53;;
20229;SDS011;12195;55.790;37.572;2022-12-08T14:38:24;21.62;;;7.72;;
20229;SDS011;12195;55.790;37.572;2022-12-08T14:41:08;15.63;;;6.62;;
20229;SDS011;12195;55.790;37.572;2022-12-08T14:43:39;17.77;;;7.15;;
20229;SDS011;12195;55.790;37.572;2022-12-08T14:46:21;15.90;;;7.40;;
20229;SDS011;12195;55.790;37.572;2022-12-08T14:48:55;14.80;;;6.20;;
20229;SDS011;12195;55.790;37.572;2022-12-08T14:51:29;16.65;;;7.50;;
20229;SDS011;12195;55.790;37.572;2022-12-08T14:54:11;18.32;;;8.13;;
20229;SDS011;12195;55.790;37.572;2022-12-08T14:56:49;16.42;;;5.53;;
20229;SDS011;12195;55.790;37.572;2022-12-08T14:59:25;21.17;;;6.33;;
20229;SDS011;12195;55.790;37.572;2022-12-08T15:04:55;14.65;;;8.05;;
20229;SDS011;12195;55.790;37.572;2022-12-08T15:07:43;17.92;;;7.35;;
20229;SDS011;12195;55.790;37.572;2022-12-08T15:15:52;17.67;;;7.70;;
20229;SDS011;12195;55.790;37.572;2022-12-08T15:18:39;26.30;;;8.98;;
20229;SDS011;12195;55.790;37.572;2022-12-08T15:21:11;22.58;;;9.00;;
20229;SDS011;12195;55.790;37.572;2022-12-08T15:23:45;20.48;;;7.53;;
20229;SDS011;12195;55.790;37.572;2022-12-08T15:26:22;24.37;;;8.00;;
20229;SDS011;12195;55.790;37.572;2022-12-08T15:28:57;21.87;;;8.73;;
20229;SDS011;12195;55.790;37.572;2022-12-08T15:31:31;17.55;;;7.85;;
20229;SDS011;12195;55.790;37.572;2022-12-08T15:34:03;22.55;;;8.90;;
20229;SDS011;12195;55.790;37.572;2022-12-08T15:36:37;13.50;;;6.90;;
20229;SDS011;12195;55.790;37.572;2022-12-08T15:42:05;21.30;;;8.60;;
20229;SDS011;12195;55.790;37.572;2022-12-08T15:44:39;22.42;;;9.08;;
20229;SDS011;12195;55.790;37.572;2022-12-08T15:47:19;19.07;;;8.88;;
20229;SDS011;12195;55.790;37.572;2022-12-08T15:49:53;29.25;;;10.63;;
20229;SDS011;12195;55.790;37.572;2022-12-08T15:52:26;21.80;;;9.00;;
20229;SDS011;12195;55.790;37.572;2022-12-08T15:54:58;25.72;;;10.32;;
20229;SDS011;12195;55.790;37.572;2022-12-08T15:57:32;15.90;;;8.55;;
20229;SDS011;12195;55.790;37.572;2022-12-08T16:00:09;17.07;;;8.98;;
20229;SDS011;12195;55.790;37.572;2022-12-08T16:02:43;21.87;;;9.28;;
20229;SDS011;12195;55.790;37.572;2022-12-08T16:05:21;19.27;;;8.60;;
20229;SDS011;12195;55.790;37.572;2022-12-08T16:07:56;33.55;;;10.18;;
20229;SDS011;12195;55.790;37.572;2022-12-08T16:10:30;18.42;;;8.53;;
20229;SDS011;12195;55.790;37.572;2022-12-08T16:15:55;19.17;;;7.72;;
20229;SDS011;12195;55.790;37.572;2022-12-08T16:18:33;24.02;;;9.03;;
20229;SDS011;12195;55.790;37.572;2022-12-08T16:21:08;19.05;;;8.35;;
20229;SDS011;12195;55.790;37.572;2022-12-08T16:23:43;19.75;;;8.18;;
20229;SDS011;12195;55.790;37.572;2022-12-08T16:26:18;22.48;;;8.68;;
20229;SDS011;12195;55.790;37.572;2022-12-08T16:28:54;19.12;;;8.70;;
20229;SDS011;12195;55.790;37.572;2022-12-08T16:31:27;17.27;;;7.57;;
20229;SDS011;12195;55.790;37.572;2022-12-08T16:33:59;25.32;;;9.28;;
20229;SDS011;12195;55.790;37.572;2022-12-08T16:36:32;27.40;;;10.40;;
20229;SDS011;12195;55.790;37.572;2022-12-08T16:39:05;13.75;;;7.72;;
20229;SDS011;12195;55.790;37.572;2022-12-08T16:41:38;20.10;;;9.50;;
20229;SDS011;12195;55.790;37.572;2022-12-08T16:44:28;26.17;;;10.32;;
20229;SDS011;12195;55.790;37.572;2022-12-08T16:47:05;25.12;;;9.05;;
20229;SDS011;12195;55.790;37.572;2022-12-08T16:49:36;24.75;;;9.98;;
20229;SDS011;12195;55.790;37.572;2022-12-08T16:52:09;25.60;;;9.50;;
20229;SDS011;12195;55.790;37.572;2022-12-08T16:54:41;30.05;;;9.93;;
20229;SDS011;12195;55.790;37.572;2022-12-08T16:57:14;26.07;;;10.10;;
20229;SDS011;12195;55.790;37.572;2022-12-08T16:59:47;27.27;;;10.03;;
20229;SDS011;12195;55.790;37.572;2022-12-08T17:02:20;18.87;;;8.38;;
20229;SDS011;12195;55.790;37.572;2022-12-08T17:04:52;22.75;;;8.53;;